createdAt,value
2018-10-16T00:00:59.014Z,11.40
2018-10-16T00:03:30.761Z,13.20
2018-10-16T00:06:02.650Z,11.97
2018-10-16T00:08:33.805Z,12.17
2018-10-16T00:11:05.356Z,11.97
2018-10-16T00:13:36.664Z,11.73
2018-10-16T00:16:08.006Z,12.53
2018-10-16T00:18:39.577Z,12.17
2018-10-16T00:21:10.768Z,12.60
2018-10-16T00:23:42.523Z,11.47
2018-10-16T00:26:14.001Z,11.90
2018-10-16T00:28:45.211Z,12.00
2018-10-16T00:31:16.813Z,12.40
2018-10-16T00:33:48.133Z,11.20
2018-10-16T00:36:19.388Z,11.73
2018-10-16T00:38:50.552Z,12.20
2018-10-16T00:41:22.130Z,11.93
2018-10-16T00:43:53.426Z,11.57
2018-10-16T00:46:24.669Z,11.93
2018-10-16T00:48:56.242Z,12.57
2018-10-16T00:51:27.452Z,12.90
2018-10-16T00:53:58.659Z,12.50
2018-10-16T00:56:30.390Z,12.17
2018-10-16T00:59:01.587Z,11.97
2018-10-16T01:01:33.842Z,12.93
2018-10-16T01:04:06.197Z,12.53
2018-10-16T01:06:38.162Z,13.47
2018-10-16T01:09:13.315Z,12.33
2018-10-16T01:11:44.518Z,12.13
2018-10-16T01:14:15.710Z,12.80
2018-10-16T01:16:46.900Z,12.93
2018-10-16T01:19:18.095Z,13.20
2018-10-16T01:21:50.242Z,13.10
2018-10-16T01:24:21.672Z,12.57
2018-10-16T01:26:53.021Z,11.83
2018-10-16T01:29:24.630Z,12.03
2018-10-16T01:31:55.810Z,11.77
2018-10-16T01:34:26.983Z,13.00
2018-10-16T01:36:58.492Z,13.27
2018-10-16T01:39:30.062Z,13.13
2018-10-16T01:42:01.224Z,12.77
2018-10-16T01:44:32.436Z,13.17
2018-10-16T01:47:04.106Z,12.27
2018-10-16T01:49:35.526Z,13.00
2018-10-16T01:52:06.745Z,12.97
2018-10-16T01:54:37.948Z,12.33
2018-10-16T01:57:09.450Z,12.53
2018-10-16T01:59:41.059Z,12.83
2018-10-16T02:02:12.296Z,13.37
2018-10-16T02:04:44.015Z,12.90
2018-10-16T02:07:16.016Z,12.90
2018-10-16T02:09:47.180Z,12.67
2018-10-16T02:12:18.813Z,13.47
2018-10-16T02:14:50.500Z,13.53
2018-10-16T02:17:21.776Z,13.23
2018-10-16T02:19:52.933Z,14.27
2018-10-16T02:22:24.116Z,13.50
2018-10-16T02:24:55.732Z,14.10
2018-10-16T02:27:26.927Z,14.30
2018-10-16T02:29:58.302Z,13.83
2018-10-16T02:32:29.454Z,14.37
2018-10-16T02:35:01.508Z,13.37
2018-10-16T02:37:33.144Z,13.40
2018-10-16T02:40:04.557Z,12.10
2018-10-16T02:42:35.763Z,12.73
2018-10-16T02:45:08.214Z,12.57
2018-10-16T02:47:39.648Z,13.53
2018-10-16T02:50:12.408Z,13.60
2018-10-16T02:52:43.931Z,12.30
2018-10-16T02:55:15.090Z,13.13
2018-10-16T02:57:46.961Z,12.83
2018-10-16T03:00:18.280Z,13.10
2018-10-16T03:02:49.753Z,12.73
2018-10-16T03:05:21.342Z,12.83
2018-10-16T03:07:52.940Z,12.97
2018-10-16T03:10:24.365Z,13.50
2018-10-16T03:12:55.522Z,13.63
2018-10-16T03:15:27.108Z,15.17
2018-10-16T03:17:58.550Z,14.43
2018-10-16T03:20:30.165Z,15.07
2018-10-16T03:23:01.668Z,14.67
2018-10-16T03:25:32.858Z,15.00
2018-10-16T03:28:04.021Z,14.70
2018-10-16T03:30:36.017Z,15.03
2018-10-16T03:33:07.467Z,14.70
2018-10-16T03:35:38.642Z,14.40
2018-10-16T03:38:10.497Z,14.73
2018-10-16T03:40:42.055Z,13.47
2018-10-16T03:43:13.204Z,13.23
2018-10-16T03:45:44.414Z,13.23
2018-10-16T03:48:15.903Z,13.47
2018-10-16T03:50:47.731Z,12.70
2018-10-16T03:53:18.970Z,13.13
2018-10-16T03:55:50.125Z,13.70
2018-10-16T03:58:21.571Z,13.90
2018-10-16T04:00:53.013Z,12.83
2018-10-16T04:03:24.193Z,13.47
2018-10-16T04:05:55.878Z,13.43
2018-10-16T04:08:27.461Z,14.73
2018-10-16T04:10:58.671Z,14.43
2018-10-16T04:13:30.402Z,13.50
2018-10-16T04:16:01.575Z,13.23
2018-10-16T04:18:32.774Z,14.33
2018-10-16T04:21:03.937Z,13.80
2018-10-16T04:23:35.104Z,14.40
2018-10-16T04:26:06.599Z,13.23
2018-10-16T04:28:37.768Z,14.13
2018-10-16T04:31:10.031Z,12.50
2018-10-16T04:33:41.454Z,14.20
2018-10-16T04:36:12.878Z,13.67
2018-10-16T04:38:44.107Z,13.83
2018-10-16T04:41:15.559Z,14.77
2018-10-16T04:43:46.726Z,13.67
2018-10-16T04:46:17.889Z,12.77
2018-10-16T04:48:49.614Z,12.33
2018-10-16T04:51:21.093Z,14.53
2018-10-16T04:53:52.249Z,15.00
2018-10-16T04:56:23.696Z,14.70
2018-10-16T04:58:55.240Z,14.23
2018-10-16T05:01:27.305Z,14.37
2018-10-16T05:03:58.714Z,15.63
2018-10-16T05:06:30.515Z,15.60
2018-10-16T05:09:01.963Z,14.37
2018-10-16T05:11:33.195Z,15.67
2018-10-16T05:14:04.349Z,15.03
2018-10-16T05:16:35.826Z,14.20
2018-10-16T05:19:07.227Z,14.63
2018-10-16T05:21:38.857Z,16.13
2018-10-16T05:24:10.971Z,15.07
2018-10-16T05:26:42.489Z,15.37
2018-10-16T05:29:13.800Z,14.47
2018-10-16T05:31:44.963Z,14.97
2018-10-16T05:34:16.157Z,15.77
2018-10-16T05:36:47.364Z,15.57
2018-10-16T05:39:18.692Z,15.43
2018-10-16T05:41:50.075Z,13.60
2018-10-16T05:44:21.577Z,15.53
2018-10-16T05:46:52.751Z,16.00
2018-10-16T05:49:24.297Z,16.10
2018-10-16T05:51:55.485Z,15.47
2018-10-16T05:54:27.119Z,16.87
2018-10-16T05:56:58.239Z,16.23
2018-10-16T05:59:29.400Z,16.20
2018-10-16T06:02:01.186Z,16.97
2018-10-16T06:04:32.334Z,14.93
2018-10-16T06:07:03.775Z,16.03
2018-10-16T06:09:35.738Z,14.50
2018-10-16T06:12:07.199Z,16.20
2018-10-16T06:14:38.782Z,15.23
2018-10-16T06:17:09.946Z,15.40
2018-10-16T06:19:41.655Z,13.67
2018-10-16T06:22:13.189Z,13.83
2018-10-16T06:24:44.366Z,15.00
2018-10-16T06:27:15.557Z,17.93
2018-10-16T06:29:46.732Z,15.97
2018-10-16T06:32:17.856Z,14.17
2018-10-16T06:34:49.405Z,16.33
2018-10-16T06:37:20.865Z,16.97
2018-10-16T06:39:52.320Z,16.60
2018-10-16T06:42:36.790Z,16.57
2018-10-16T06:45:10.336Z,15.50
2018-10-16T06:47:41.548Z,15.50
2018-10-16T06:50:13.115Z,14.93
2018-10-16T06:52:44.265Z,14.50
2018-10-16T06:55:15.791Z,15.30
2018-10-16T06:57:47.270Z,15.17
2018-10-16T07:00:19.192Z,14.00
2018-10-16T07:02:50.321Z,13.17
2018-10-16T07:05:21.910Z,14.40
2018-10-16T07:07:53.460Z,15.50
2018-10-16T07:10:24.647Z,13.60
2018-10-16T07:12:56.101Z,15.10
2018-10-16T07:15:27.658Z,15.43
2018-10-16T07:17:59.101Z,14.57
2018-10-16T07:20:30.612Z,13.77
2018-10-16T07:23:01.828Z,16.00
2018-10-16T07:25:33.345Z,15.63
2018-10-16T07:28:04.496Z,15.90
2018-10-16T07:30:36.542Z,13.77
2018-10-16T07:33:07.716Z,13.33
2018-10-16T07:35:39.312Z,16.57
2018-10-16T07:38:10.645Z,15.47
2018-10-16T07:40:42.021Z,15.70
2018-10-16T07:43:13.457Z,15.47
2018-10-16T07:45:44.857Z,14.90
2018-10-16T07:48:16.051Z,15.67
2018-10-16T07:50:47.596Z,15.93
2018-10-16T07:53:19.154Z,16.10
2018-10-16T07:55:51.143Z,15.33
2018-10-16T07:58:22.584Z,15.93
2018-10-16T08:00:54.218Z,15.30
2018-10-16T08:03:25.413Z,14.87
2018-10-16T08:05:56.912Z,15.20
2018-10-16T08:08:28.387Z,17.20
2018-10-16T08:11:00.229Z,18.83
2018-10-16T08:13:31.697Z,18.27
2018-10-16T08:16:02.895Z,18.13
2018-10-16T08:18:34.124Z,17.90
2018-10-16T08:21:05.303Z,15.90
2018-10-16T08:23:36.464Z,16.70
2018-10-16T08:26:09.795Z,16.73
2018-10-16T08:28:40.938Z,16.80
2018-10-16T08:31:12.356Z,15.07
2018-10-16T08:33:43.591Z,16.93
2018-10-16T08:36:14.911Z,16.50
2018-10-16T08:39:21.101Z,17.30
2018-10-16T08:42:22.493Z,16.20
2018-10-16T08:45:49.003Z,16.60
2018-10-16T08:49:13.905Z,16.00
2018-10-16T08:51:49.774Z,16.23
2018-10-16T08:54:21.443Z,15.83
2018-10-16T08:56:52.863Z,17.00
2018-10-16T08:59:24.500Z,15.93
2018-10-16T09:01:55.691Z,16.60
2018-10-16T09:04:27.348Z,17.37
2018-10-16T09:06:58.564Z,16.10
2018-10-16T09:09:30.012Z,17.17
2018-10-16T09:12:01.317Z,18.27
2018-10-16T09:14:32.822Z,16.60
2018-10-16T09:17:04.162Z,17.17
2018-10-16T09:19:35.703Z,16.57
2018-10-16T09:22:07.073Z,17.27
2018-10-16T09:24:38.505Z,17.50
2018-10-16T09:27:09.897Z,16.97
2018-10-16T09:29:41.495Z,16.77
2018-10-16T09:32:12.712Z,18.43
2018-10-16T09:34:44.125Z,17.33
2018-10-16T09:37:15.960Z,18.47
2018-10-16T09:39:47.414Z,16.80
2018-10-16T09:42:18.971Z,18.30
2018-10-16T09:44:50.608Z,18.73
2018-10-16T09:47:22.173Z,17.87
2018-10-16T09:49:53.715Z,17.30
2018-10-16T09:52:25.373Z,17.07
2018-10-16T09:54:56.569Z,17.87
2018-10-16T09:57:27.791Z,18.50
2018-10-16T09:59:58.946Z,18.80
2018-10-16T10:02:30.769Z,16.15
2018-10-16T10:05:02.468Z,15.20
2018-10-16T10:07:34.003Z,17.75
2018-10-16T10:10:05.136Z,19.17
2018-10-16T10:12:36.425Z,16.95
2018-10-16T10:15:07.879Z,16.77
2018-10-16T10:17:39.047Z,18.02
2018-10-16T10:20:11.231Z,17.17
2018-10-16T10:22:42.897Z,18.23
2018-10-16T10:25:14.750Z,17.57
2018-10-16T10:27:46.135Z,16.67
2018-10-16T10:30:17.345Z,17.37
2018-10-16T10:32:48.586Z,17.45
2018-10-16T10:35:20.068Z,15.95
2018-10-16T10:37:51.199Z,17.77
2018-10-16T10:40:22.719Z,15.08
2018-10-16T10:42:54.180Z,17.85
2018-10-16T10:45:25.879Z,16.77
2018-10-16T10:47:57.401Z,16.65
2018-10-16T10:50:28.937Z,15.30
2018-10-16T10:53:00.299Z,14.73
2018-10-16T10:55:31.496Z,16.20
2018-10-16T10:58:02.852Z,16.12
2018-10-16T11:00:34.064Z,14.95
2018-10-16T11:03:05.610Z,15.90
2018-10-16T11:05:37.060Z,14.75
2018-10-16T11:08:08.570Z,14.45
2018-10-16T11:10:40.059Z,15.95
2018-10-16T11:13:11.677Z,16.00
2018-10-16T11:15:43.037Z,15.40
2018-10-16T11:18:14.948Z,13.65
2018-10-16T11:20:46.347Z,14.75
2018-10-16T11:23:18.280Z,14.30
2018-10-16T11:25:49.757Z,15.75
2018-10-16T11:28:21.026Z,15.23
2018-10-16T11:30:52.648Z,15.18
2018-10-16T11:33:23.884Z,15.50
2018-10-16T11:35:55.434Z,15.60
2018-10-16T11:38:27.156Z,13.72
2018-10-16T11:40:58.370Z,16.32
2018-10-16T11:43:29.808Z,14.85
2018-10-16T11:46:00.981Z,13.98
2018-10-16T11:48:32.578Z,15.10
2018-10-16T11:51:03.859Z,14.68
2018-10-16T11:53:35.190Z,14.78
2018-10-16T11:56:06.479Z,15.93
2018-10-16T11:58:37.959Z,15.18
2018-10-16T12:01:09.533Z,15.63
2018-10-16T12:03:40.768Z,14.85
2018-10-16T12:06:12.054Z,16.80
2018-10-16T12:08:43.679Z,16.87
2018-10-16T12:11:15.152Z,15.70
2018-10-16T12:13:47.255Z,13.95
2018-10-16T12:16:19.297Z,15.43
2018-10-16T12:19:09.199Z,14.78
2018-10-16T12:21:40.350Z,14.28
2018-10-16T12:24:11.869Z,14.05
2018-10-16T12:26:43.396Z,13.80
2018-10-16T12:29:14.946Z,15.18
2018-10-16T12:31:46.862Z,13.65
2018-10-16T12:34:18.041Z,14.33
2018-10-16T12:36:49.426Z,13.50
2018-10-16T12:39:21.114Z,11.08
2018-10-16T12:41:52.328Z,12.37
2018-10-16T12:44:23.507Z,12.25
2018-10-16T12:46:54.724Z,11.12
2018-10-16T12:49:25.889Z,11.18
2018-10-16T12:51:57.872Z,11.25
2018-10-16T12:54:29.691Z,11.78
2018-10-16T12:57:01.681Z,11.68
2018-10-16T12:59:32.781Z,11.65
2018-10-16T13:02:03.919Z,11.90
2018-10-16T13:04:35.078Z,11.55
2018-10-16T13:07:43.551Z,11.55
2018-10-16T13:10:19.402Z,11.50
2018-10-16T13:12:50.826Z,12.13
2018-10-16T13:15:22.021Z,10.90
2018-10-16T13:17:53.594Z,11.05
2018-10-16T13:20:25.033Z,11.38
2018-10-16T13:22:56.615Z,12.20
2018-10-16T13:25:27.944Z,11.75
2018-10-16T13:27:59.363Z,11.93
2018-10-16T13:30:30.827Z,10.60
2018-10-16T13:33:02.223Z,10.95
2018-10-16T13:35:33.424Z,10.18
2018-10-16T13:38:04.611Z,9.90
2018-10-16T13:40:36.007Z,9.88
2018-10-16T13:43:08.313Z,10.53
2018-10-16T13:45:39.779Z,10.28
2018-10-16T13:48:11.203Z,10.65
2018-10-16T13:50:42.711Z,9.88
2018-10-16T13:53:13.913Z,10.50
2018-10-16T13:55:45.065Z,10.13
2018-10-16T13:58:16.458Z,9.70
2018-10-16T14:00:47.733Z,9.80
2018-10-16T14:03:19.188Z,10.38
2018-10-16T14:05:50.579Z,9.88
2018-10-16T14:08:21.771Z,10.82
2018-10-16T14:10:52.945Z,9.18
2018-10-16T14:13:24.586Z,8.78
2018-10-16T14:15:55.808Z,8.93
2018-10-16T14:18:27.278Z,9.98
2018-10-16T14:20:58.700Z,9.75
2018-10-16T14:23:30.730Z,10.38
2018-10-16T14:26:02.390Z,9.90
2018-10-16T14:28:33.527Z,9.28
2018-10-16T14:31:04.679Z,8.78
2018-10-16T14:33:36.302Z,8.10
2018-10-16T14:36:07.515Z,8.68
2018-10-16T14:38:38.907Z,8.18
2018-10-16T14:41:10.305Z,9.48
2018-10-16T14:43:42.237Z,9.58
2018-10-16T14:46:14.213Z,9.70
2018-10-16T14:48:45.741Z,8.78
2018-10-16T14:51:16.903Z,7.80
2018-10-16T14:53:48.134Z,8.70
2018-10-16T14:56:19.378Z,9.30
2018-10-16T14:58:50.748Z,9.33
2018-10-16T15:01:22.134Z,8.28
2018-10-16T15:03:53.740Z,8.60
2018-10-16T15:06:24.860Z,9.07
2018-10-16T15:08:56.372Z,8.83
2018-10-16T15:11:27.772Z,9.40
2018-10-16T15:13:59.230Z,8.60
2018-10-16T15:16:30.399Z,8.60
2018-10-16T15:19:01.854Z,9.43
2018-10-16T15:21:33.945Z,9.13
2018-10-16T15:24:05.698Z,7.47
2018-10-16T15:26:37.201Z,8.87
2018-10-16T15:29:08.645Z,8.93
2018-10-16T15:31:40.071Z,9.37
2018-10-16T15:34:11.282Z,9.60
2018-10-16T15:36:42.843Z,9.10
2018-10-16T15:39:14.742Z,9.80
2018-10-16T15:41:46.157Z,9.70
2018-10-16T15:44:17.704Z,9.27
2018-10-16T15:46:48.981Z,8.87
2018-10-16T15:49:20.073Z,9.20
2018-10-16T15:51:51.270Z,8.80
2018-10-16T15:54:22.906Z,8.77
2018-10-16T15:56:54.386Z,9.07
2018-10-16T15:59:25.569Z,8.67
2018-10-16T16:01:57.091Z,9.17
2018-10-16T16:04:28.626Z,8.43
2018-10-16T16:07:00.041Z,9.37
2018-10-16T16:09:31.227Z,8.90
2018-10-16T16:12:02.483Z,9.10
2018-10-16T16:14:33.642Z,9.20
2018-10-16T16:17:05.532Z,10.00
2018-10-16T16:19:36.993Z,9.67
2018-10-16T16:22:08.520Z,9.03
2018-10-16T16:24:40.394Z,9.17
2018-10-16T16:27:11.795Z,9.43
2018-10-16T16:29:43.262Z,9.17
2018-10-16T16:32:14.904Z,9.93
2018-10-16T16:34:46.056Z,9.73
2018-10-16T16:37:17.736Z,9.70
2018-10-16T16:39:49.501Z,8.93
2018-10-16T16:42:20.733Z,10.17
2018-10-16T16:44:52.202Z,10.10
2018-10-16T16:47:23.651Z,10.33
2018-10-16T16:49:55.584Z,9.83
2018-10-16T16:52:27.080Z,10.07
2018-10-16T16:54:58.316Z,10.70
2018-10-16T16:57:29.980Z,11.20
2018-10-16T17:00:01.120Z,9.73
2018-10-16T17:02:32.978Z,9.97
2018-10-16T17:05:04.573Z,11.13
2018-10-16T17:07:36.340Z,11.67
2018-10-16T17:10:08.446Z,10.60
2018-10-16T17:12:40.846Z,11.10
2018-10-16T17:15:17.294Z,11.63
2018-10-16T17:17:48.899Z,11.83
2018-10-16T17:20:20.799Z,11.93
2018-10-16T17:22:51.968Z,11.53
2018-10-16T17:25:23.572Z,10.50
2018-10-16T17:27:54.641Z,11.40
2018-10-16T17:30:26.192Z,12.40
2018-10-16T17:32:58.089Z,12.47
2018-10-16T17:35:29.222Z,13.03
2018-10-16T17:38:00.701Z,13.10
2018-10-16T17:40:32.466Z,12.57
2018-10-16T17:43:04.109Z,11.83
2018-10-16T17:45:35.263Z,12.43
2018-10-16T17:48:06.917Z,12.93
2018-10-16T17:50:38.362Z,12.20
2018-10-16T17:53:09.863Z,13.33
2018-10-16T17:55:41.112Z,12.67
2018-10-16T17:58:13.052Z,13.37
2018-10-16T18:00:44.593Z,12.60
2018-10-16T18:03:15.896Z,11.57
2018-10-16T18:05:46.950Z,12.60
2018-10-16T18:08:18.457Z,12.07
2018-10-16T18:10:49.931Z,12.10
2018-10-16T18:13:21.127Z,11.93
2018-10-16T18:15:52.701Z,10.57
2018-10-16T18:18:24.325Z,11.57
2018-10-16T18:20:55.779Z,11.83
2018-10-16T18:23:26.939Z,12.17
2018-10-16T18:25:58.578Z,11.97
2018-10-16T18:28:29.986Z,12.00
2018-10-16T18:31:01.611Z,11.83
2018-10-16T18:33:33.393Z,11.30
2018-10-16T18:36:04.823Z,9.90
2018-10-16T18:38:36.260Z,10.83
2018-10-16T18:41:08.145Z,10.73
2018-10-16T18:43:58.703Z,10.83
2018-10-16T18:46:30.506Z,12.00
2018-10-16T18:49:01.653Z,13.13
2018-10-16T18:51:32.996Z,13.17
2018-10-16T18:54:04.215Z,10.90
2018-10-16T18:56:35.387Z,11.20
2018-10-16T18:59:06.630Z,12.67
2018-10-16T19:01:38.250Z,12.37
2018-10-16T19:04:09.715Z,13.43
2018-10-16T19:06:41.027Z,11.87
2018-10-16T19:09:13.511Z,14.00
2018-10-16T19:11:45.014Z,14.17
2018-10-16T19:14:16.206Z,14.33
2018-10-16T19:16:47.409Z,13.47
2018-10-16T19:19:18.655Z,13.57
2018-10-16T19:21:49.904Z,13.70
2018-10-16T19:24:21.347Z,12.90
2018-10-16T19:26:52.892Z,12.77
2018-10-16T19:29:24.300Z,12.87
2018-10-16T19:31:56.062Z,13.80
2018-10-16T19:34:27.903Z,14.97
2018-10-16T19:36:59.103Z,13.03
2018-10-16T19:39:30.269Z,14.47
2018-10-16T19:42:01.435Z,14.30
2018-10-16T19:44:32.706Z,15.00
2018-10-16T19:47:03.921Z,12.93
2018-10-16T19:49:35.366Z,13.07
2018-10-16T19:52:06.636Z,13.80
2018-10-16T19:54:38.179Z,14.33
2018-10-16T19:57:09.827Z,13.97
2018-10-16T19:59:41.546Z,14.77
2018-10-16T20:02:12.683Z,14.77
2018-10-16T20:04:44.146Z,14.13
2018-10-16T20:07:15.386Z,14.83
2018-10-16T20:09:47.397Z,14.63
2018-10-16T20:12:19.098Z,14.27
2018-10-16T20:14:50.912Z,14.40
2018-10-16T20:17:22.767Z,15.13
2018-10-16T20:19:54.385Z,14.87
2018-10-16T20:22:25.669Z,14.70
2018-10-16T20:24:57.732Z,14.13
2018-10-16T20:27:29.388Z,14.93
2018-10-16T20:30:00.832Z,14.67
2018-10-16T20:32:32.039Z,14.47
2018-10-16T20:35:03.952Z,15.37
2018-10-16T20:37:35.443Z,15.07
2018-10-16T20:40:06.796Z,14.93
2018-10-16T20:42:38.751Z,15.93
2018-10-16T20:45:10.013Z,15.23
2018-10-16T20:47:41.560Z,15.13
2018-10-16T20:50:12.784Z,15.00
2018-10-16T20:52:44.307Z,15.33
2018-10-16T20:55:15.527Z,14.60
2018-10-16T20:57:46.664Z,14.70
2018-10-16T21:00:18.094Z,14.67
2018-10-16T21:02:49.698Z,14.07
2018-10-16T21:05:21.562Z,13.50
2018-10-16T21:07:52.977Z,14.47
2018-10-16T21:10:24.174Z,14.20
2018-10-16T21:12:55.396Z,13.80
2018-10-16T21:15:27.005Z,14.00
2018-10-16T21:17:58.170Z,14.23
2018-10-16T21:20:29.620Z,13.50
2018-10-16T21:23:01.247Z,14.77
2018-10-16T21:25:32.357Z,14.23
2018-10-16T21:28:03.577Z,14.50
2018-10-16T21:30:35.133Z,14.60
2018-10-16T21:33:06.603Z,15.30
2018-10-16T21:35:38.030Z,13.57
2018-10-16T21:38:09.197Z,14.90
2018-10-16T21:40:40.842Z,15.40
2018-10-16T21:43:12.309Z,15.07
2018-10-16T21:45:44.042Z,15.43
2018-10-16T21:48:15.558Z,14.77
2018-10-16T21:50:46.985Z,16.23
2018-10-16T21:53:18.498Z,15.10
2018-10-16T21:55:49.937Z,14.83
2018-10-16T21:58:21.416Z,14.10
2018-10-16T22:01:12.273Z,15.00
2018-10-16T22:03:43.438Z,15.37
2018-10-16T22:06:14.920Z,16.50
2018-10-16T22:08:46.131Z,15.57
2018-10-16T22:11:17.591Z,15.83
2018-10-16T22:13:49.136Z,16.03
2018-10-16T22:16:20.343Z,15.97
2018-10-16T22:18:51.522Z,16.10
2018-10-16T22:21:22.691Z,15.00
2018-10-16T22:23:54.120Z,16.93
2018-10-16T22:26:25.285Z,17.17
2018-10-16T22:28:56.503Z,16.07
2018-10-16T22:31:28.243Z,16.67
2018-10-16T22:33:59.825Z,16.73
2018-10-16T22:36:31.354Z,16.27
2018-10-16T22:39:02.920Z,15.80
2018-10-16T22:41:34.405Z,16.90
2018-10-16T22:44:05.867Z,16.20
2018-10-16T22:46:37.416Z,16.30
2018-10-16T22:49:09.840Z,16.33
2018-10-16T22:51:41.319Z,16.83
2018-10-16T22:54:12.534Z,15.83
2018-10-16T22:56:44.014Z,16.97
2018-10-16T22:59:15.265Z,17.13
2018-10-16T23:01:47.077Z,16.53
2018-10-16T23:04:18.797Z,14.87
2018-10-16T23:06:50.599Z,16.80
2018-10-16T23:09:22.197Z,14.83
2018-10-16T23:11:53.333Z,15.90
2018-10-16T23:14:24.870Z,14.90
2018-10-16T23:16:56.083Z,15.73
2018-10-16T23:19:27.647Z,16.90
2018-10-16T23:21:59.377Z,16.83
2018-10-16T23:24:31.277Z,15.83
2018-10-16T23:27:02.759Z,16.47
2018-10-16T23:29:34.210Z,16.07
2018-10-16T23:32:05.742Z,15.07
2018-10-16T23:34:37.354Z,15.87
2018-10-16T23:37:08.863Z,14.40
2018-10-16T23:39:40.037Z,16.50
2018-10-16T23:42:11.248Z,14.40
2018-10-16T23:44:42.890Z,15.07
2018-10-16T23:47:14.521Z,15.43
2018-10-16T23:49:45.949Z,16.43
2018-10-16T23:52:17.114Z,16.00
2018-10-16T23:54:48.530Z,16.03
2018-10-16T23:57:19.684Z,16.77
2018-10-16T23:59:50.943Z,15.50
